createdAt,value
2023-03-15T00:01:27.362Z,93655.09
2023-03-15T00:03:28.966Z,93658.69
2023-03-15T00:05:32.040Z,93652.03
2023-03-15T00:07:33.556Z,93646.81
2023-03-15T00:09:35.090Z,93643.91
2023-03-15T00:11:36.673Z,93651.72
2023-03-15T00:13:38.125Z,93647.34
2023-03-15T00:15:49.719Z,93657.94
2023-03-15T00:17:51.252Z,93658.72
2023-03-15T00:19:52.728Z,93658.56
2023-03-15T00:21:54.222Z,93650.75
2023-03-15T00:23:56.111Z,93651.91
2023-03-15T00:25:57.811Z,93652.06
2023-03-15T00:27:59.237Z,93645.91
2023-03-15T00:30:00.722Z,93646.38
2023-03-15T00:32:02.303Z,93643.50
2023-03-15T00:34:03.763Z,93639.78
2023-03-15T00:36:06.675Z,93642.88
2023-03-15T00:38:08.421Z,93637.53
2023-03-15T00:40:10.225Z,93638.78
2023-03-15T00:42:12.206Z,93641.75
2023-03-15T00:44:13.784Z,93638.31
2023-03-15T00:46:15.689Z,93640.75
2023-03-15T00:48:17.175Z,93630.66
2023-03-15T00:50:19.008Z,93631.63
2023-03-15T00:52:22.400Z,93619.75
2023-03-15T00:54:24.925Z,93614.88
2023-03-15T00:56:27.671Z,93606.88
2023-03-15T00:58:29.104Z,93612.28
2023-03-15T01:00:30.547Z,93617.00
2023-03-15T01:02:32.074Z,93615.19
2023-03-15T01:04:33.535Z,93615.03
2023-03-15T01:06:35.082Z,93610.47
2023-03-15T01:08:36.578Z,93603.97
2023-03-15T01:10:38.137Z,93609.47
2023-03-15T01:12:39.697Z,93604.91
2023-03-15T01:14:41.219Z,93599.19
2023-03-15T01:16:42.728Z,93595.13
2023-03-15T01:18:44.343Z,93598.25
2023-03-15T01:20:45.996Z,93588.66
2023-03-15T01:22:47.433Z,93593.25
2023-03-15T01:24:48.907Z,93591.97
2023-03-15T01:26:50.428Z,93585.44
2023-03-15T01:28:51.915Z,93579.78
2023-03-15T01:30:53.440Z,93577.66
2023-03-15T01:32:54.914Z,93580.88
2023-03-15T01:34:56.842Z,93584.28
2023-03-15T01:36:58.391Z,93575.31
2023-03-15T01:38:59.878Z,93573.19
2023-03-15T01:41:01.316Z,93581.53
2023-03-15T01:43:02.843Z,93572.47
2023-03-15T01:45:04.483Z,93573.63
2023-03-15T01:47:06.071Z,93574.22
2023-03-15T01:49:08.504Z,93566.91
2023-03-15T01:51:16.025Z,93564.97
2023-03-15T01:53:17.497Z,93559.94
2023-03-15T01:55:19.812Z,93551.63
2023-03-15T01:57:23.744Z,93561.25
2023-03-15T01:59:27.530Z,93554.72
2023-03-15T02:01:29.118Z,93552.13
2023-03-15T02:03:31.764Z,93550.28
2023-03-15T02:05:34.382Z,93551.44
2023-03-15T02:07:35.837Z,93538.47
2023-03-15T02:09:41.790Z,93534.38
2023-03-15T02:11:43.276Z,93528.91
2023-03-15T02:13:44.711Z,93532.47
2023-03-15T02:15:47.135Z,93537.34
2023-03-15T02:17:48.678Z,93531.13
2023-03-15T02:20:02.698Z,93516.16
2023-03-15T02:22:12.262Z,93513.25
2023-03-15T02:24:32.261Z,93516.81
2023-03-15T02:26:43.364Z,93514.91
2023-03-15T02:28:44.911Z,93520.75
2023-03-15T02:30:46.601Z,93509.34
2023-03-15T02:32:48.478Z,93512.13
2023-03-15T02:34:50.007Z,93511.16
2023-03-15T02:36:52.572Z,93519.28
2023-03-15T02:38:54.527Z,93525.44
2023-03-15T02:40:55.991Z,93522.88
2023-03-15T02:43:17.711Z,93519.19
2023-03-15T02:45:19.200Z,93512.19
2023-03-15T02:47:21.783Z,93510.63
2023-03-15T02:49:24.240Z,93514.88
2023-03-15T02:51:27.339Z,93506.09
2023-03-15T02:53:31.796Z,93501.91
2023-03-15T02:55:33.305Z,93506.75
2023-03-15T02:57:34.835Z,93513.88
2023-03-15T02:59:36.296Z,93509.34
2023-03-15T03:01:37.827Z,93507.25
2023-03-15T03:03:40.426Z,93498.97
2023-03-15T03:05:41.977Z,93502.22
2023-03-15T03:07:43.567Z,93489.53
2023-03-15T03:09:45.148Z,93489.53
2023-03-15T03:11:46.704Z,93486.28
2023-03-15T03:13:48.164Z,93485.94
2023-03-15T03:15:50.228Z,93486.44
2023-03-15T03:17:51.728Z,93481.69
2023-03-15T03:19:53.242Z,93482.47
2023-03-15T03:21:54.983Z,93478.56
2023-03-15T03:23:56.534Z,93477.44
2023-03-15T03:25:58.141Z,93475.16
2023-03-15T03:27:59.641Z,93470.75
2023-03-15T03:30:01.171Z,93468.81
2023-03-15T03:32:02.745Z,93469.78
2023-03-15T03:34:04.275Z,93472.34
2023-03-15T03:36:06.032Z,93466.66
2023-03-15T03:38:08.025Z,93470.56
2023-03-15T03:40:10.062Z,93464.69
2023-03-15T03:42:11.671Z,93462.38
2023-03-15T03:44:13.280Z,93459.00
2023-03-15T03:46:14.921Z,93455.25
2023-03-15T03:48:16.405Z,93466.06
2023-03-15T03:50:17.855Z,93461.84
2023-03-15T03:52:19.333Z,93467.06
2023-03-15T03:54:21.475Z,93457.28
2023-03-15T03:56:23.019Z,93456.00
2023-03-15T03:58:24.486Z,93450.31
2023-03-15T04:00:25.928Z,93448.34
2023-03-15T04:02:27.422Z,93448.50
2023-03-15T04:04:28.994Z,93443.78
2023-03-15T04:06:31.262Z,93443.13
2023-03-15T04:08:32.724Z,93437.44
2023-03-15T04:10:35.159Z,93434.53
2023-03-15T04:12:36.597Z,93440.72
2023-03-15T04:14:38.144Z,93442.00
2023-03-15T04:16:39.733Z,93441.19
2023-03-15T04:18:41.287Z,93436.91
2023-03-15T04:20:47.065Z,93445.88
2023-03-15T04:22:49.764Z,93444.56
2023-03-15T04:24:51.332Z,93442.44
2023-03-15T04:26:57.884Z,93440.63
2023-03-15T04:28:59.473Z,93433.84
2023-03-15T04:31:01.090Z,93432.59
2023-03-15T04:33:03.665Z,93433.25
2023-03-15T04:35:05.833Z,93434.25
2023-03-15T04:37:07.371Z,93430.69
2023-03-15T04:39:10.043Z,93429.69
2023-03-15T04:41:11.737Z,93427.09
2023-03-15T04:43:13.196Z,93427.88
2023-03-15T04:45:14.704Z,93424.78
2023-03-15T04:47:16.218Z,93433.53
2023-03-15T04:49:17.813Z,93430.97
2023-03-15T04:51:19.238Z,93432.16
2023-03-15T04:53:20.756Z,93437.50
2023-03-15T04:55:22.298Z,93429.06
2023-03-15T04:57:24.371Z,93430.34
2023-03-15T04:59:25.882Z,93426.31
2023-03-15T05:01:31.392Z,93430.69
2023-03-15T05:03:32.877Z,93426.44
2023-03-15T05:05:34.354Z,93429.34
2023-03-15T05:07:36.007Z,93423.50
2023-03-15T05:09:39.721Z,93429.34
2023-03-15T05:11:41.418Z,93436.97
2023-03-15T05:13:42.981Z,93435.31
2023-03-15T05:15:44.490Z,93433.72
2023-03-15T05:17:46.500Z,93437.78
2023-03-15T05:19:48.776Z,93435.16
2023-03-15T05:21:50.325Z,93421.78
2023-03-15T05:23:51.782Z,93428.00
2023-03-15T05:25:54.169Z,93426.19
2023-03-15T05:27:55.727Z,93423.44
2023-03-15T05:29:57.235Z,93414.91
2023-03-15T05:31:58.745Z,93415.69
2023-03-15T05:34:04.389Z,93418.91
2023-03-15T05:36:05.845Z,93412.06
2023-03-15T05:38:07.274Z,93412.53
2023-03-15T05:40:09.513Z,93422.44
2023-03-15T05:42:11.052Z,93421.91
2023-03-15T05:44:12.498Z,93423.19
2023-03-15T05:46:14.007Z,93416.03
2023-03-15T05:48:16.677Z,93414.38
2023-03-15T05:50:18.198Z,93403.13
2023-03-15T05:52:19.754Z,93411.56
2023-03-15T05:54:21.257Z,93415.66
2023-03-15T05:56:22.733Z,93405.03
2023-03-15T05:58:24.256Z,93411.09
2023-03-15T06:00:25.926Z,93406.00
2023-03-15T06:02:27.425Z,93412.50
2023-03-15T06:04:28.973Z,93413.63
2023-03-15T06:06:33.288Z,93415.03
2023-03-15T06:08:35.252Z,93404.19
2023-03-15T06:10:37.708Z,93407.09
2023-03-15T06:12:39.302Z,93415.13
2023-03-15T06:14:40.711Z,93414.44
2023-03-15T06:16:42.381Z,93406.41
2023-03-15T06:18:43.879Z,93410.41
2023-03-15T06:20:45.352Z,93410.13
2023-03-15T06:22:46.793Z,93415.09
2023-03-15T06:24:48.279Z,93423.72
2023-03-15T06:26:49.855Z,93430.38
2023-03-15T06:28:51.380Z,93418.06
2023-03-15T06:30:53.016Z,93414.31
2023-03-15T06:32:54.928Z,93411.97
2023-03-15T06:34:56.493Z,93403.63
2023-03-15T06:36:57.996Z,93399.97
2023-03-15T06:38:59.523Z,93389.13
2023-03-15T06:41:01.331Z,93400.72
2023-03-15T06:43:05.981Z,93409.47
2023-03-15T06:45:08.563Z,93401.19
2023-03-15T06:47:10.739Z,93394.25
2023-03-15T06:49:12.240Z,93389.22
2023-03-15T06:51:13.768Z,93382.09
2023-03-15T06:53:15.680Z,93400.00
2023-03-15T06:55:18.541Z,93405.44
2023-03-15T06:57:20.010Z,93405.94
2023-03-15T06:59:21.592Z,93403.88
2023-03-15T07:01:23.124Z,93393.25
2023-03-15T07:03:24.710Z,93383.91
2023-03-15T07:05:26.225Z,93387.75
2023-03-15T07:07:27.687Z,93390.47
2023-03-15T07:09:29.115Z,93391.91
2023-03-15T07:11:30.633Z,93386.22
2023-03-15T07:13:32.162Z,93383.25
2023-03-15T07:15:33.637Z,93389.22
2023-03-15T07:17:35.309Z,93384.88
2023-03-15T07:19:41.397Z,93388.84
2023-03-15T07:21:48.180Z,93394.44
2023-03-15T07:23:49.646Z,93393.06
2023-03-15T07:25:55.090Z,93403.41
2023-03-15T07:27:57.048Z,93395.03
2023-03-15T07:29:58.607Z,93386.34
2023-03-15T07:32:01.520Z,93383.22
2023-03-15T07:34:03.167Z,93379.63
2023-03-15T07:36:05.329Z,93386.03
2023-03-15T07:38:06.793Z,93373.13
2023-03-15T07:40:12.621Z,93375.03
2023-03-15T07:42:14.179Z,93376.59
2023-03-15T07:44:15.661Z,93387.09
2023-03-15T07:46:17.295Z,93388.88
2023-03-15T07:48:18.890Z,93381.00
2023-03-15T07:50:20.429Z,93374.88
2023-03-15T07:52:22.003Z,93375.88
2023-03-15T07:54:23.526Z,93372.44
2023-03-15T07:56:24.974Z,93369.09
2023-03-15T07:58:26.419Z,93375.63
2023-03-15T08:00:28.452Z,93374.19
2023-03-15T08:02:30.690Z,93364.72
2023-03-15T08:04:32.784Z,93368.69
2023-03-15T08:06:35.412Z,93369.31
2023-03-15T08:08:36.940Z,93383.38
2023-03-15T08:10:38.413Z,93376.09
2023-03-15T08:12:42.114Z,93379.59
2023-03-15T08:14:43.638Z,93362.72
2023-03-15T08:16:45.239Z,93353.22
2023-03-15T08:18:46.910Z,93347.09
2023-03-15T08:20:48.550Z,93343.91
2023-03-15T08:22:51.398Z,93349.59
2023-03-15T08:24:53.406Z,93353.56
2023-03-15T08:26:54.916Z,93373.06
2023-03-15T08:28:56.428Z,93359.81
2023-03-15T08:30:57.938Z,93358.66
2023-03-15T08:32:59.461Z,93347.09
2023-03-15T08:35:00.961Z,93348.13
2023-03-15T08:37:02.509Z,93343.88
2023-03-15T08:39:05.632Z,93342.69
2023-03-15T08:41:07.126Z,93341.66
2023-03-15T08:43:08.612Z,93339.03
2023-03-15T08:45:10.511Z,93330.81
2023-03-15T08:47:12.097Z,93326.63
2023-03-15T08:49:13.536Z,93335.09
2023-03-15T08:51:15.037Z,93332.88
2023-03-15T08:53:16.528Z,93333.66
2023-03-15T08:55:18.045Z,93347.59
2023-03-15T08:57:19.568Z,93346.97
2023-03-15T08:59:31.403Z,93355.94
2023-03-15T09:01:33.689Z,93355.09
2023-03-15T09:03:35.152Z,93347.41
2023-03-15T09:05:36.711Z,93344.44
2023-03-15T09:07:39.262Z,93341.59
2023-03-15T09:09:40.829Z,93346.00
2023-03-15T09:11:42.324Z,93349.84
2023-03-15T09:13:43.848Z,93345.75
2023-03-15T09:15:45.335Z,93345.34
2023-03-15T09:17:46.891Z,93344.09
2023-03-15T09:19:48.395Z,93342.88
2023-03-15T09:21:49.828Z,93346.56
2023-03-15T09:23:51.290Z,93348.84
2023-03-15T09:25:52.815Z,93349.97
2023-03-15T09:27:54.442Z,93352.16
2023-03-15T09:29:55.890Z,93349.38
2023-03-15T09:31:57.519Z,93351.06
2023-03-15T09:33:59.690Z,93335.03
2023-03-15T09:36:01.232Z,93333.53
2023-03-15T09:38:03.996Z,93328.72
2023-03-15T09:40:07.374Z,93320.72
2023-03-15T09:42:35.184Z,93322.22
2023-03-15T09:44:51.511Z,93326.09
2023-03-15T09:46:56.005Z,93321.63
2023-03-15T09:49:02.838Z,93320.41
2023-03-15T09:51:09.054Z,93314.00
2023-03-15T09:53:10.672Z,93310.75
2023-03-15T09:55:25.319Z,93302.44
2023-03-15T09:57:31.896Z,93298.38
2023-03-15T09:59:35.190Z,93314.72
2023-03-15T10:01:37.857Z,93304.44
2023-03-15T10:03:42.619Z,93314.09
2023-03-15T10:05:45.180Z,93314.28
2023-03-15T10:07:46.679Z,93325.34
2023-03-15T10:09:48.302Z,93322.16
2023-03-15T10:12:08.634Z,93322.31
2023-03-15T10:14:31.016Z,93318.53
2023-03-15T10:16:41.445Z,93320.97
2023-03-15T10:18:47.197Z,93318.06
2023-03-15T10:20:53.723Z,93315.31
2023-03-15T10:23:05.912Z,93316.16
2023-03-15T10:25:23.486Z,93315.56
2023-03-15T10:27:36.825Z,93317.25
2023-03-15T10:29:38.535Z,93313.88
2023-03-15T10:31:44.395Z,93310.91
2023-03-15T10:33:46.242Z,93297.78
2023-03-15T10:35:47.761Z,93297.81
2023-03-15T10:37:49.439Z,93304.63
2023-03-15T10:39:53.456Z,93306.06
2023-03-15T10:41:54.972Z,93311.69
2023-03-15T10:43:58.291Z,93323.13
2023-03-15T10:46:03.995Z,93316.28
2023-03-15T10:48:05.484Z,93323.72
2023-03-15T10:50:07.133Z,93306.31
2023-03-15T10:52:25.481Z,93304.91
2023-03-15T10:54:26.965Z,93307.38
2023-03-15T10:56:29.509Z,93310.00
2023-03-15T10:58:40.307Z,93315.69
2023-03-15T11:00:44.376Z,93317.50
2023-03-15T11:02:53.086Z,93308.03
2023-03-15T11:05:03.840Z,93308.47
2023-03-15T11:07:08.031Z,93305.66
2023-03-15T11:09:14.599Z,93301.41
2023-03-15T11:11:16.093Z,93294.97
2023-03-15T11:13:20.695Z,93293.34
2023-03-15T11:15:22.255Z,93288.31
2023-03-15T11:17:24.741Z,93289.53
2023-03-15T11:19:27.953Z,93292.34
2023-03-15T11:21:33.534Z,93295.81
2023-03-15T11:23:36.605Z,93297.63
2023-03-15T11:25:38.145Z,93293.81
2023-03-15T11:27:40.180Z,93294.22
2023-03-15T11:29:48.830Z,93302.28
2023-03-15T11:31:51.193Z,93297.44
2023-03-15T11:33:59.962Z,93303.88
2023-03-15T11:36:03.570Z,93301.25
2023-03-15T11:38:15.230Z,93288.13
2023-03-15T11:40:26.339Z,93280.06
2023-03-15T11:42:32.944Z,93284.09
2023-03-15T11:44:34.483Z,93286.13
2023-03-15T11:46:54.742Z,93288.94
2023-03-15T11:49:16.470Z,93287.16
2023-03-15T11:51:18.201Z,93287.75
2023-03-15T11:53:19.622Z,93282.69
2023-03-15T11:55:23.622Z,93284.28
2023-03-15T11:57:38.589Z,93286.13
2023-03-15T11:59:40.572Z,93279.84
2023-03-15T12:02:01.575Z,93284.47
2023-03-15T12:04:35.538Z,93282.25
2023-03-15T12:06:37.675Z,93278.84
2023-03-15T12:08:50.796Z,93280.63
2023-03-15T12:10:52.755Z,93276.81
2023-03-15T12:12:57.679Z,93266.31
2023-03-15T12:15:02.014Z,93269.75
2023-03-15T12:17:22.152Z,93271.34
2023-03-15T12:19:23.675Z,93270.13
2023-03-15T12:21:35.311Z,93257.00
2023-03-15T12:23:47.226Z,93251.38
2023-03-15T12:25:55.044Z,93256.19
2023-03-15T12:27:57.005Z,93263.66
2023-03-15T12:30:01.787Z,93263.81
2023-03-15T12:32:06.238Z,93261.00
2023-03-15T12:34:12.258Z,93267.25
2023-03-15T12:36:19.513Z,93256.53
2023-03-15T12:38:22.287Z,93250.47
2023-03-15T12:40:59.367Z,93247.66
2023-03-15T12:43:01.365Z,93256.94
2023-03-15T12:45:18.190Z,93252.06
2023-03-15T12:47:19.657Z,93254.91
2023-03-15T12:49:23.978Z,93256.94
2023-03-15T12:51:41.408Z,93246.63
2023-03-15T12:53:44.225Z,93249.03
2023-03-15T12:55:45.984Z,93248.00
2023-03-15T12:57:48.330Z,93241.59
2023-03-15T12:59:59.338Z,93247.22
2023-03-15T13:02:01.252Z,93242.97
2023-03-15T13:04:02.690Z,93247.78
2023-03-15T13:06:16.336Z,93245.16
2023-03-15T13:08:21.178Z,93246.16
2023-03-15T13:10:35.070Z,93239.34
2023-03-15T13:12:48.199Z,93231.69
2023-03-15T13:14:52.588Z,93237.16
2023-03-15T13:17:01.989Z,93228.91
2023-03-15T13:19:18.878Z,93227.53
2023-03-15T13:21:24.843Z,93226.91
2023-03-15T13:23:30.134Z,93229.31
2023-03-15T13:25:54.877Z,93236.97
2023-03-15T13:27:57.115Z,93239.22
2023-03-15T13:29:58.870Z,93237.22
2023-03-15T13:32:06.717Z,93242.06
2023-03-15T13:34:13.033Z,93239.69
2023-03-15T13:36:19.404Z,93241.09
2023-03-15T13:38:20.893Z,93253.41
2023-03-15T13:40:22.361Z,93252.19
2023-03-15T13:42:24.280Z,93248.16
2023-03-15T13:44:26.090Z,93249.16
2023-03-15T13:46:29.725Z,93245.72
2023-03-15T13:48:32.763Z,93247.88
2023-03-15T13:50:34.223Z,93246.47
2023-03-15T13:52:35.742Z,93246.84
2023-03-15T13:54:37.241Z,93250.28
2023-03-15T13:56:49.254Z,93255.88
2023-03-15T13:58:52.107Z,93248.00
2023-03-15T14:00:58.273Z,93276.00
2023-03-15T14:03:00.945Z,93270.91
2023-03-15T14:05:05.294Z,93266.09
2023-03-15T14:07:19.744Z,93266.50
